Weather History for Monett, MO

Change the Weather History Date:

Tuesday, November 13, 2012

  Actual Average (KJLN) Record (KJLN)
Temperature  
Mean Temperature 42 °F 50 °F  
Max Temperature 51 °F 60 °F 82 °F (1999)
Min Temperature 32 °F 39 °F 9 °F (1986)
Degree Days  
Heating Degree Days 24 16  
Month to date heating degree days 171  
Since 1 July heating degree days 423  
Cooling Degree Days 0 0  
Month to date cooling degree days 5  
Year to date cooling degree days 1696  
Moisture  
Dew Point 25 °F    
Average Humidity 57    
Maximum Humidity 75    
Minimum Humidity 33    
Precipitation  
Precipitation 0.00 in 0.13 in 2.62 in (1985)
Month to date precipitation 1.72  
Year to date precipitation 41.67  
Sea Level Pressure  
Sea Level Pressure 30.42 in    
Wind  
Wind Speed 4 mph (SSE)    
Max Wind Speed 7 mph    
Max Gust Speed -    
Visibility 10 miles    
Events      
T = Trace of Precipitation, MM = Missing Value Source: NWS Daily Summary

Daily Weather History Graph

Daily Weather History Graph

Search for Another Location

Airport:

Trip Planner

Search our weather history database for the weather conditions in past years. The results will help you decide how hot, cold, wet, or windy it might be!

Date:

Astronomy

Nov. 13, 2012 Rise Set
Actual Time 6:52 AM CST 5:07 PM CST
Civil Twilight 6:25 AM CST 5:35 PM CST
Nautical Twilight 5:54 AM CST 6:06 PM CST
Astronomical Twilight 5:23 AM CST 6:37 PM CST
Moon 6:31 AM CST (11/13) 5:02 PM CST (11/13)
Length of Visible Light 11h 09m
Length of Day
10h 14m
Waning Crescent, 0% of the Moon is Illuminated
Nov 13
Waning Crescent
Nov 13
New
Nov 20
First Quarter
Nov 28
Full
Dec 6
Last Quarter

Hourly Weather History & Observations

Time (CST) Temp. Windchill Dew Point Humidity Pressure Visibility Wind Dir Wind Speed Gust Speed Precip Events Conditions
12:15 AM 32.0 °F 27.5 °F 24.8 °F 75% 30.45 in 10.0 mi SSW 4.6 mph - N/A   Clear
12:35 AM 32.0 °F 27.5 °F 24.8 °F 75% 30.45 in 10.0 mi South 4.6 mph - N/A   Clear
12:55 AM 32.0 °F 27.5 °F 24.8 °F 75% 30.45 in 10.0 mi South 4.6 mph - N/A   Clear
1:15 AM 32.0 °F 27.5 °F 24.8 °F 75% 30.45 in 10.0 mi SSW 4.6 mph - N/A   Clear
1:35 AM 32.0 °F 27.5 °F 24.8 °F 75% 30.45 in 10.0 mi South 4.6 mph - N/A   Clear
1:55 AM 32.0 °F 27.5 °F 24.8 °F 75% 30.45 in 10.0 mi South 4.6 mph - N/A   Clear
2:15 AM 32.0 °F 27.5 °F 23.0 °F 69% 30.45 in 10.0 mi South 4.6 mph - N/A   Clear
2:35 AM 32.0 °F 28.7 °F 24.8 °F 75% 30.46 in 10.0 mi South 3.5 mph - N/A   Clear
2:55 AM 32.0 °F 27.5 °F 24.8 °F 75% 30.46 in 10.0 mi SSE 4.6 mph - N/A   Clear
3:15 AM 32.0 °F 27.5 °F 23.0 °F 69% 30.45 in 10.0 mi South 4.6 mph - N/A   Clear
3:35 AM 32.0 °F 28.7 °F 23.0 °F 69% 30.45 in 10.0 mi South 3.5 mph - N/A   Clear
3:55 AM 32.0 °F 28.7 °F 23.0 °F 69% 30.46 in 10.0 mi South 3.5 mph - N/A   Clear
4:15 AM 32.0 °F 27.5 °F 23.0 °F 69% 30.45 in 10.0 mi South 4.6 mph - N/A   Clear
4:35 AM 32.0 °F 28.7 °F 23.0 °F 69% 30.45 in 10.0 mi South 3.5 mph - N/A   Clear
4:55 AM 32.0 °F 28.7 °F 23.0 °F 69% 30.46 in 10.0 mi SSE 3.5 mph - N/A   Clear
5:15 AM 32.0 °F 27.5 °F 23.0 °F 69% 30.46 in 10.0 mi SSE 4.6 mph - N/A   Clear
5:35 AM 32.0 °F 27.5 °F 23.0 °F 69% 30.46 in 10.0 mi SSE 4.6 mph - N/A   Clear
6:15 AM 32.0 °F 27.5 °F 23.0 °F 69% 30.46 in 10.0 mi SSE 4.6 mph - N/A   Clear
6:35 AM 32.0 °F 27.5 °F 23.0 °F 69% 30.46 in 10.0 mi SSE 4.6 mph - N/A   Clear
6:55 AM 32.0 °F 27.5 °F 23.0 °F 69% 30.46 in 10.0 mi SSE 4.6 mph - N/A   Clear
7:15 AM 32.0 °F 27.5 °F 23.0 °F 69% 30.47 in 10.0 mi SSE 4.6 mph - N/A   Clear
7:35 AM 32.0 °F 26.4 °F 24.8 °F 75% 30.47 in 10.0 mi SSE 5.8 mph - N/A   Clear
7:55 AM 32.0 °F 26.4 °F 24.8 °F 75% 30.47 in 10.0 mi SSE 5.8 mph - N/A   Clear
8:15 AM 35.6 °F 31.7 °F 26.6 °F 70% 30.48 in 10.0 mi SSE 4.6 mph - N/A   Clear
8:35 AM 35.6 °F 31.7 °F 28.4 °F 75% 30.48 in 10.0 mi SSE 4.6 mph - N/A   Clear
8:55 AM 39.2 °F 35.9 °F 28.4 °F 65% 30.48 in 10.0 mi South 4.6 mph - N/A   Clear
9:15 AM 41.0 °F 38.0 °F 30.2 °F 65% 30.48 in 10.0 mi SSW 4.6 mph - N/A   Clear
9:35 AM 42.8 °F 40.1 °F 30.2 °F 61% 30.48 in 10.0 mi SSW 4.6 mph - N/A   Clear
9:55 AM 44.6 °F 42.2 °F 28.4 °F 53% 30.48 in 10.0 mi SSW 4.6 mph - N/A   Clear
10:15 AM 46.4 °F 43.5 °F 30.2 °F 53% 30.48 in 10.0 mi South 5.8 mph - N/A   Clear
10:35 AM 48.2 °F - 28.4 °F 46% 30.48 in 10.0 mi South 6.9 mph - N/A   Clear
10:55 AM 50.0 °F - 28.4 °F 43% 30.47 in 10.0 mi SSW 5.8 mph - N/A   Clear
11:15 AM 50.0 °F - 28.4 °F 43% 30.46 in 10.0 mi SW 4.6 mph - N/A   Clear
11:35 AM 50.0 °F - 28.4 °F 43% 30.45 in 10.0 mi SW 6.9 mph - N/A   Clear
12:15 PM 50.0 °F - 26.6 °F 40% 30.43 in 10.0 mi SW 4.6 mph - N/A   Clear
12:55 PM 51.8 °F - 26.6 °F 38% 30.41 in 10.0 mi SW 6.9 mph - N/A   Clear
1:35 PM 50.0 °F - 23.0 °F 35% 30.39 in 10.0 mi Calm Calm - N/A   Clear
1:55 PM 51.8 °F - 24.8 °F 35% 30.39 in 10.0 mi West 4.6 mph - N/A   Clear
2:15 PM 50.0 °F - 23.0 °F 35% 30.39 in 10.0 mi Calm Calm - N/A   Clear
2:35 PM 50.0 °F - 24.8 °F 37% 30.38 in 10.0 mi Calm Calm - N/A   Clear
2:55 PM 51.8 °F - 23.0 °F 33% 30.37 in 10.0 mi SW 3.5 mph - N/A   Clear
3:15 PM 51.8 °F - 23.0 °F 33% 30.36 in 10.0 mi SE 3.5 mph - N/A   Clear
3:35 PM 51.8 °F - 23.0 °F 33% 30.36 in 10.0 mi East 3.5 mph - N/A   Clear
3:55 PM 51.8 °F - 23.0 °F 33% 30.36 in 10.0 mi Calm Calm - N/A   Clear
4:15 PM 50.0 °F - 26.6 °F 40% 30.35 in 10.0 mi Calm Calm - N/A   Clear
4:35 PM 50.0 °F - 24.8 °F 37% 30.35 in 10.0 mi Calm Calm - N/A   Clear
4:55 PM 50.0 °F - 23.0 °F 35% 30.34 in 10.0 mi East 3.5 mph - N/A   Clear
5:15 PM 48.2 °F - 23.0 °F 37% 30.34 in 10.0 mi ENE 3.5 mph - N/A   Clear
5:35 PM 46.4 °F 45.2 °F 23.0 °F 40% 30.34 in 10.0 mi East 3.5 mph - N/A   Clear
5:55 PM 44.6 °F 41.4 °F 23.0 °F 43% 30.35 in 10.0 mi ENE 5.8 mph - N/A   Clear
6:15 PM 44.6 °F 43.1 °F 23.0 °F 43% 30.35 in 10.0 mi East 3.5 mph - N/A   Clear
6:35 PM 44.6 °F 42.2 °F 24.8 °F 46% 30.36 in 10.0 mi East 4.6 mph - N/A   Clear
6:55 PM 42.8 °F 40.1 °F 24.8 °F 49% 30.37 in 10.0 mi ESE 4.6 mph - N/A   Clear
7:15 PM 42.8 °F 39.3 °F 24.8 °F 49% 30.38 in 10.0 mi ESE 5.8 mph - N/A   Clear
7:35 PM 42.8 °F 39.3 °F 24.8 °F 49% 30.39 in 10.0 mi ESE 5.8 mph - N/A   Clear
7:55 PM 41.0 °F 37.1 °F 24.8 °F 53% 30.40 in 10.0 mi SE 5.8 mph - N/A   Clear
8:15 PM 41.0 °F 36.4 °F 24.8 °F 53% 30.40 in 10.0 mi ESE 6.9 mph - N/A   Clear
8:35 PM 41.0 °F 36.4 °F 26.6 °F 57% 30.40 in 10.0 mi ESE 6.9 mph - N/A   Clear
8:55 PM 41.0 °F 36.4 °F 26.6 °F 57% 30.40 in 10.0 mi ESE 6.9 mph - N/A   Clear
9:15 PM 41.0 °F 36.4 °F 26.6 °F 57% 30.40 in 10.0 mi SE 6.9 mph - N/A   Clear
9:35 PM 41.0 °F 36.4 °F 28.4 °F 61% 30.40 in 10.0 mi SE 6.9 mph - N/A   Clear
9:55 PM 41.0 °F 36.4 °F 28.4 °F 61% 30.40 in 10.0 mi SE 6.9 mph - N/A   Clear
10:15 PM 41.0 °F 36.4 °F 28.4 °F 61% 30.40 in 10.0 mi SE 6.9 mph - N/A   Clear
10:35 PM 41.0 °F 36.4 °F 28.4 °F 61% 30.39 in 10.0 mi SE 6.9 mph - N/A   Clear
10:55 PM 41.0 °F 37.1 °F 28.4 °F 61% 30.39 in 10.0 mi SE 5.8 mph - N/A   Clear
11:15 PM 41.0 °F 38.0 °F 28.4 °F 61% 30.39 in 10.0 mi SE 4.6 mph - N/A   Clear
11:35 PM 39.2 °F 35.0 °F 28.4 °F 65% 30.39 in 10.0 mi SE 5.8 mph - N/A   Clear
11:55 PM 37.4 °F 34.9 °F 28.4 °F 70% 30.40 in 10.0 mi SSE 3.5 mph - N/A   Clear